createdAt,value
2023-04-05T00:02:19.462Z,9.65
2023-04-05T00:04:54.397Z,9.68
2023-04-05T00:07:26.177Z,9.30
2023-04-05T00:10:11.021Z,9.15
2023-04-05T00:12:59.128Z,8.43
2023-04-05T00:15:33.832Z,8.80
2023-04-05T00:18:04.962Z,10.38
2023-04-05T00:20:37.187Z,9.73
2023-04-05T00:23:26.215Z,10.40
2023-04-05T00:26:19.275Z,10.07
2023-04-05T00:29:08.219Z,8.48
2023-04-05T00:31:37.930Z,10.52
2023-04-05T00:34:13.477Z,9.85
2023-04-05T00:36:48.025Z,9.65
2023-04-05T00:39:25.698Z,10.38
2023-04-05T00:41:55.761Z,10.55
2023-04-05T00:44:25.013Z,11.20
2023-04-05T00:46:54.280Z,11.75
2023-04-05T00:49:23.914Z,10.15
2023-04-05T00:51:53.245Z,11.18
2023-04-05T00:54:22.527Z,11.57
2023-04-05T00:57:01.221Z,11.90
2023-04-05T00:59:31.182Z,10.73
2023-04-05T01:02:21.058Z,11.65
2023-04-05T01:05:01.825Z,11.77
2023-04-05T01:07:44.838Z,10.80
2023-04-05T01:10:18.758Z,10.38
2023-04-05T01:12:50.922Z,10.60
2023-04-05T01:15:20.712Z,10.63
2023-04-05T01:17:50.091Z,10.40
2023-04-05T01:20:25.724Z,11.65
2023-04-05T01:23:30.643Z,11.65
2023-04-05T01:26:38.621Z,12.07
2023-04-05T01:29:37.572Z,12.40
2023-04-05T01:32:26.738Z,12.35
2023-04-05T01:35:03.782Z,11.73
2023-04-05T01:37:41.132Z,10.45
2023-04-05T01:40:12.114Z,12.32
2023-04-05T01:42:42.624Z,12.47
2023-04-05T01:45:12.292Z,12.30
2023-04-05T01:47:43.835Z,12.23
2023-04-05T01:50:20.461Z,9.93
2023-04-05T01:52:49.675Z,12.55
2023-04-05T01:55:19.051Z,11.23
2023-04-05T01:57:54.069Z,11.50
2023-04-05T02:00:23.719Z,11.10
2023-04-05T02:03:01.561Z,10.82
2023-04-05T02:05:30.864Z,11.80
2023-04-05T02:07:59.903Z,12.50
2023-04-05T02:13:04.473Z,9.00
2023-04-05T02:15:33.918Z,10.90
2023-04-05T02:18:05.288Z,10.68
2023-04-05T02:20:34.847Z,12.00
2023-04-05T02:23:04.416Z,10.65
2023-04-05T02:25:47.045Z,8.98
2023-04-05T02:28:16.212Z,10.95
2023-04-05T02:30:45.311Z,8.60
2023-04-05T02:33:21.947Z,8.73
2023-04-05T02:35:51.943Z,8.02
2023-04-05T02:43:34.934Z,9.48
2023-04-05T02:46:04.268Z,7.78
2023-04-05T02:48:41.542Z,9.13
2023-04-05T02:51:12.165Z,9.95
2023-04-05T02:53:47.877Z,9.45
2023-04-05T02:56:18.762Z,11.67
2023-04-05T02:58:51.142Z,12.15
2023-04-05T03:01:26.555Z,12.05
2023-04-05T03:03:58.210Z,10.57
2023-04-05T03:06:32.596Z,11.25
2023-04-05T03:11:39.470Z,11.35
2023-04-05T03:14:08.731Z,8.90
2023-04-05T03:16:55.916Z,11.82
2023-04-05T03:19:36.144Z,11.40
2023-04-05T03:22:15.809Z,10.45
2023-04-05T03:24:46.294Z,11.13
2023-04-05T03:27:18.713Z,9.90
2023-04-05T03:30:08.047Z,9.10
2023-04-05T03:32:49.170Z,7.70
2023-04-05T03:35:35.693Z,9.55
2023-04-05T03:38:07.514Z,8.85
2023-04-05T03:43:11.048Z,11.18
2023-04-05T03:45:40.660Z,5.95
2023-04-05T03:48:10.117Z,9.60
2023-04-05T03:50:41.531Z,9.52
2023-04-05T03:53:11.006Z,10.75
2023-04-05T03:55:43.006Z,7.88
2023-04-05T03:58:12.555Z,9.95
2023-04-05T04:00:42.884Z,8.80
2023-04-05T04:03:22.617Z,9.38
2023-04-05T04:08:40.490Z,10.73
2023-04-05T04:11:23.359Z,8.05
2023-04-05T04:13:53.376Z,10.27
2023-04-05T04:16:45.946Z,9.65
2023-04-05T04:19:34.646Z,10.15
2023-04-05T04:22:12.949Z,12.25
2023-04-05T04:25:09.496Z,10.98
2023-04-05T04:27:46.284Z,8.88
2023-04-05T04:30:23.289Z,10.55
2023-04-05T04:33:17.146Z,11.35
2023-04-05T04:36:01.591Z,10.82
2023-04-05T04:38:59.304Z,10.20
2023-04-05T04:44:37.820Z,10.98
2023-04-05T04:47:17.206Z,13.13
2023-04-05T04:50:00.212Z,10.98
2023-04-05T04:52:38.269Z,10.82
2023-04-05T04:55:15.177Z,11.02
2023-04-05T04:57:48.009Z,12.00
2023-04-05T05:00:18.006Z,9.82
2023-04-05T05:02:49.059Z,11.57
2023-04-05T05:05:32.293Z,11.63
2023-04-05T05:08:11.967Z,11.77
2023-04-05T05:10:45.155Z,11.00
2023-04-05T05:13:19.510Z,13.20
2023-04-05T05:15:48.780Z,12.57
2023-04-05T05:18:23.143Z,11.07
2023-04-05T05:20:53.832Z,11.68
2023-04-05T05:23:29.479Z,11.52
2023-04-05T05:26:01.941Z,11.23
2023-04-05T05:28:31.252Z,11.40
2023-04-05T05:31:00.862Z,11.90
2023-04-05T05:33:30.237Z,11.63
2023-04-05T05:36:05.379Z,9.65
2023-04-05T05:38:34.750Z,9.90
2023-04-05T05:41:06.238Z,11.57
2023-04-05T05:43:35.515Z,10.52
2023-04-05T05:46:04.952Z,10.82
2023-04-05T05:48:39.278Z,11.27
2023-04-05T05:51:14.726Z,9.93
2023-04-05T05:53:49.022Z,10.50
2023-04-05T05:56:20.632Z,10.50
2023-04-05T06:01:27.745Z,10.55
2023-04-05T06:03:57.174Z,10.63
2023-04-05T06:06:34.400Z,10.95
2023-04-05T06:09:05.115Z,10.38
2023-04-05T06:11:38.916Z,9.98
2023-04-05T06:14:16.984Z,9.93
2023-04-05T06:16:46.438Z,9.82
2023-04-05T06:19:15.693Z,11.65
2023-04-05T06:21:51.352Z,9.75
2023-04-05T06:24:20.830Z,11.80
2023-04-05T06:26:57.056Z,9.98
2023-04-05T06:29:26.688Z,7.97
2023-04-05T06:31:58.069Z,10.32
2023-04-05T06:34:32.434Z,9.02
2023-04-05T06:37:02.555Z,10.23
2023-04-05T06:39:32.048Z,8.85
2023-04-05T06:42:03.313Z,9.98
2023-04-05T06:44:41.108Z,11.20
2023-04-05T06:47:15.651Z,8.55
2023-04-05T06:49:45.088Z,9.85
2023-04-05T06:52:14.426Z,8.98
2023-04-05T06:54:48.590Z,9.77
2023-04-05T06:57:20.052Z,10.40
2023-04-05T06:59:54.204Z,10.10
2023-04-05T07:02:28.761Z,10.23
2023-04-05T07:05:04.415Z,10.82
2023-04-05T07:07:34.529Z,10.20
2023-04-05T07:10:10.635Z,10.40
2023-04-05T07:12:48.352Z,10.40
2023-04-05T07:15:18.032Z,11.30
2023-04-05T07:17:47.245Z,11.00
2023-04-05T07:20:16.759Z,12.40
2023-04-05T07:25:27.334Z,11.07
2023-04-05T07:30:34.274Z,11.23
2023-04-05T07:33:03.524Z,10.10
2023-04-05T07:35:32.894Z,10.45
2023-04-05T07:38:22.390Z,10.02
2023-04-05T07:40:53.295Z,9.65
2023-04-05T07:43:25.404Z,9.07
2023-04-05T07:46:07.838Z,9.93
2023-04-05T07:48:37.267Z,10.88
2023-04-05T07:51:08.162Z,10.23
2023-04-05T07:53:38.398Z,10.40
2023-04-05T07:56:08.575Z,9.07
2023-04-05T07:58:41.761Z,8.70
2023-04-05T08:01:16.108Z,7.47
2023-04-05T08:03:45.328Z,8.65
2023-04-05T08:06:17.357Z,8.73
2023-04-05T08:08:47.542Z,10.13
2023-04-05T08:11:19.244Z,10.68
2023-04-05T08:13:50.983Z,9.38
2023-04-05T08:19:17.717Z,9.27
2023-04-05T08:21:47.075Z,8.88
2023-04-05T08:24:16.289Z,8.85
2023-04-05T08:27:01.029Z,8.50
2023-04-05T08:29:32.305Z,10.27
2023-04-05T08:32:01.518Z,9.55
2023-04-05T08:34:30.808Z,7.43
2023-04-05T08:37:01.547Z,6.28
2023-04-05T08:39:37.410Z,7.13
2023-04-05T08:42:13.580Z,8.20
2023-04-05T08:44:47.260Z,7.60
2023-04-05T08:47:25.560Z,8.20
2023-04-05T08:49:55.519Z,7.22
2023-04-05T08:52:24.771Z,6.07
2023-04-05T08:57:40.846Z,7.40
2023-04-05T09:00:15.265Z,7.35
2023-04-05T09:02:46.890Z,6.60
2023-04-05T09:05:18.786Z,6.60
2023-04-05T09:07:48.817Z,6.30
2023-04-05T09:10:25.837Z,4.97
2023-04-05T09:12:55.470Z,6.43
2023-04-05T09:15:32.146Z,5.38
2023-04-05T09:18:02.763Z,5.20
2023-04-05T09:20:35.268Z,5.97
2023-04-05T09:23:05.469Z,6.25
2023-04-05T09:25:45.191Z,5.80
2023-04-05T09:28:14.601Z,5.88
2023-04-05T09:30:49.016Z,5.78
2023-04-05T09:33:21.918Z,6.95
2023-04-05T09:35:57.672Z,4.75
2023-04-05T09:38:47.208Z,6.03
2023-04-05T09:41:21.603Z,6.10
2023-04-05T09:43:50.814Z,5.70
2023-04-05T09:46:42.025Z,5.03
2023-04-05T09:49:11.214Z,5.27
2023-04-05T09:51:41.055Z,5.32
2023-04-05T09:54:18.597Z,5.15
2023-04-05T09:56:58.003Z,4.75
2023-04-05T09:59:28.009Z,5.30
2023-04-05T10:01:59.566Z,5.20
2023-04-05T10:04:28.890Z,5.20
2023-04-05T10:06:58.426Z,5.03
2023-04-05T10:09:31.021Z,5.63
2023-04-05T10:12:01.932Z,6.07
2023-04-05T10:14:36.243Z,5.88
2023-04-05T10:17:14.518Z,4.35
2023-04-05T10:19:57.391Z,5.40
2023-04-05T10:22:35.181Z,6.22
2023-04-05T10:25:16.480Z,5.43
2023-04-05T10:27:50.290Z,5.85
2023-04-05T10:30:20.488Z,5.30
2023-04-05T10:33:12.547Z,4.97
2023-04-05T10:35:57.340Z,5.30
2023-04-05T10:38:28.646Z,3.40
2023-04-05T10:41:07.766Z,3.70
2023-04-05T10:43:39.585Z,4.50
2023-04-05T10:48:50.445Z,3.75
2023-04-05T10:51:25.888Z,4.15
2023-04-05T10:53:56.772Z,4.50
2023-04-05T10:56:27.601Z,4.30
2023-04-05T10:58:58.466Z,4.10
2023-04-05T11:01:28.980Z,3.50
2023-04-05T11:04:13.561Z,3.22
2023-04-05T11:06:57.894Z,2.83
2023-04-05T11:09:27.925Z,3.50
2023-04-05T11:12:02.546Z,2.72
2023-04-05T11:14:39.019Z,3.75
2023-04-05T11:17:26.578Z,4.22
2023-04-05T11:20:07.704Z,3.65
2023-04-05T11:22:37.088Z,4.50
2023-04-05T11:25:09.066Z,4.18
2023-04-05T11:27:40.936Z,3.83
2023-04-05T11:30:11.705Z,3.55
2023-04-05T11:32:47.222Z,3.88
2023-04-05T11:35:22.907Z,4.68
2023-04-05T11:38:10.371Z,4.10
2023-04-05T11:40:43.080Z,4.55
2023-04-05T11:43:19.009Z,3.85
2023-04-05T11:45:48.488Z,4.57
2023-04-05T11:48:17.621Z,4.50
2023-04-05T11:50:51.095Z,5.18
2023-04-05T11:53:31.651Z,3.83
2023-04-05T11:56:17.298Z,3.50
2023-04-05T11:58:46.727Z,3.65
2023-04-05T12:01:16.256Z,3.45
2023-04-05T12:03:45.857Z,5.20
2023-04-05T12:06:17.033Z,4.13
2023-04-05T12:08:50.286Z,4.20
2023-04-05T12:11:26.890Z,4.90
2023-04-05T12:14:02.634Z,4.25
2023-04-05T12:16:32.612Z,5.00
2023-04-05T12:19:02.560Z,4.82
2023-04-05T12:21:34.398Z,4.88
2023-04-05T12:26:34.364Z,3.15
2023-04-05T12:29:06.554Z,4.05
2023-04-05T12:31:40.603Z,3.78
2023-04-05T12:36:48.452Z,3.38
2023-04-05T12:39:19.070Z,3.42
2023-04-05T12:41:58.793Z,2.90
2023-04-05T12:44:34.945Z,4.07
2023-04-05T12:52:28.809Z,3.88
2023-04-05T12:54:58.094Z,5.03
2023-04-05T12:57:33.270Z,3.83
2023-04-05T13:00:02.555Z,5.38
2023-04-05T13:05:10.086Z,3.50
2023-04-05T13:07:46.827Z,2.67
2023-04-05T13:10:16.377Z,3.95
2023-04-05T13:12:45.865Z,4.15
2023-04-05T13:15:16.134Z,2.70
2023-04-05T13:17:49.386Z,2.40
2023-04-05T13:20:19.467Z,3.03
2023-04-05T13:22:50.779Z,3.70
2023-04-05T13:25:20.180Z,2.33
2023-04-05T13:27:49.312Z,2.45
2023-04-05T13:30:25.285Z,3.78
2023-04-05T13:32:54.605Z,3.58
2023-04-05T13:35:23.939Z,3.50
2023-04-05T13:38:03.339Z,3.80
2023-04-05T13:40:33.858Z,4.97
2023-04-05T13:43:03.100Z,4.10
2023-04-05T13:45:32.386Z,4.03
2023-04-05T13:48:16.796Z,3.60
2023-04-05T13:50:45.974Z,4.10
2023-04-05T13:55:52.597Z,2.92
2023-04-05T13:58:22.123Z,2.70
2023-04-05T14:00:51.676Z,4.60
2023-04-05T14:03:21.131Z,3.35
2023-04-05T14:05:52.342Z,4.03
2023-04-05T14:08:25.147Z,3.50
2023-04-05T14:10:54.580Z,2.90
2023-04-05T14:13:24.559Z,2.72
2023-04-05T14:15:54.038Z,3.63
2023-04-05T14:21:03.418Z,3.08
2023-04-05T14:23:34.880Z,2.90
2023-04-05T14:28:47.348Z,3.85
2023-04-05T14:31:16.679Z,3.00
2023-04-05T14:33:46.173Z,2.10
2023-04-05T14:36:22.413Z,2.08
2023-04-05T14:38:53.637Z,3.65
2023-04-05T14:41:22.971Z,2.55
2023-04-05T14:43:54.861Z,4.38
2023-04-05T14:46:29.292Z,3.13
2023-04-05T14:48:58.612Z,3.85
2023-04-05T14:51:28.988Z,3.33
2023-04-05T14:56:40.422Z,5.05
2023-04-05T14:59:09.784Z,4.28
2023-04-05T15:01:41.425Z,4.50
2023-04-05T15:04:10.878Z,4.15
2023-04-05T15:06:40.190Z,3.10
2023-04-05T15:09:12.433Z,3.55
2023-04-05T15:11:47.671Z,3.10
2023-04-05T15:14:30.761Z,2.35
2023-04-05T15:17:07.102Z,3.63
2023-04-05T15:19:36.687Z,3.08
2023-04-05T15:22:11.139Z,2.90
2023-04-05T15:27:23.589Z,4.22
2023-04-05T15:29:52.997Z,5.20
2023-04-05T15:32:22.511Z,3.60
2023-04-05T15:34:56.990Z,3.08
2023-04-05T15:37:27.712Z,3.70
2023-04-05T15:40:00.670Z,3.88
2023-04-05T15:42:32.075Z,3.67
2023-04-05T15:45:01.361Z,4.00
2023-04-05T15:47:30.989Z,2.10
2023-04-05T15:50:00.338Z,3.22
2023-04-05T15:52:34.736Z,2.65
2023-04-05T15:55:06.982Z,2.72
2023-04-05T15:57:36.430Z,2.78
2023-04-05T16:00:08.349Z,3.45
2023-04-05T16:02:39.463Z,3.65
2023-04-05T16:05:09.364Z,3.88
2023-04-05T16:07:43.655Z,3.75
2023-04-05T16:10:15.365Z,3.22
2023-04-05T16:12:44.868Z,2.53
2023-04-05T16:15:14.737Z,3.17
2023-04-05T16:17:44.167Z,4.57
2023-04-05T16:20:19.449Z,3.50
2023-04-05T16:22:48.924Z,3.90
2023-04-05T16:25:20.173Z,4.05
2023-04-05T16:27:49.687Z,4.65
2023-04-05T16:30:19.289Z,3.70
2023-04-05T16:32:49.134Z,3.63
2023-04-05T16:35:18.576Z,4.28
2023-04-05T16:37:48.393Z,4.47
2023-04-05T16:40:20.824Z,3.65
2023-04-05T16:42:50.256Z,3.65
2023-04-05T16:45:19.715Z,6.03
2023-04-05T16:47:59.237Z,4.50
2023-04-05T16:50:28.867Z,4.20
2023-04-05T16:52:58.761Z,6.65
2023-04-05T16:55:30.133Z,3.83
2023-04-05T16:57:59.602Z,4.28
2023-04-05T17:00:39.669Z,5.80
2023-04-05T17:03:09.151Z,4.00
2023-04-05T17:05:38.636Z,3.85
2023-04-05T17:08:08.502Z,3.85
2023-04-05T17:10:45.777Z,6.07
2023-04-05T17:13:21.186Z,3.67
2023-04-05T17:15:50.533Z,4.68
2023-04-05T17:18:19.747Z,3.42
2023-04-05T17:20:49.094Z,3.55
2023-04-05T17:23:18.389Z,4.10
2023-04-05T17:25:49.922Z,4.20
2023-04-05T17:28:19.265Z,4.93
2023-04-05T17:30:48.957Z,4.32
2023-04-05T17:33:18.412Z,4.30
2023-04-05T17:35:49.392Z,4.13
2023-04-05T17:38:23.849Z,3.50
2023-04-05T17:41:00.077Z,3.50
2023-04-05T17:46:05.417Z,2.40
2023-04-05T17:48:34.702Z,3.38
2023-04-05T17:51:07.081Z,2.90
2023-04-05T17:53:36.695Z,3.28
2023-04-05T17:56:08.279Z,2.90
2023-04-05T17:58:37.884Z,3.22
2023-04-05T18:01:07.302Z,3.22
2023-04-05T18:03:36.864Z,3.83
2023-04-05T18:06:06.866Z,3.50
2023-04-05T18:08:37.953Z,3.95
2023-04-05T18:11:11.986Z,3.85
2023-04-05T18:13:41.980Z,4.40
2023-04-05T18:16:11.411Z,3.50
2023-04-05T18:18:40.906Z,4.28
2023-04-05T18:21:10.440Z,3.65
2023-04-05T18:23:39.799Z,4.20
2023-04-05T18:26:16.271Z,3.40
2023-04-05T18:28:46.046Z,3.70
2023-04-05T18:31:21.088Z,3.20
2023-04-05T18:33:59.964Z,3.88
2023-04-05T18:36:34.193Z,2.85
2023-04-05T18:39:04.858Z,2.20
2023-04-05T18:41:44.480Z,3.88
2023-04-05T18:44:14.055Z,4.35
2023-04-05T18:46:44.760Z,3.55
2023-04-05T18:49:15.397Z,3.45
2023-04-05T18:54:20.384Z,2.17
2023-04-05T18:56:51.644Z,2.45
2023-04-05T18:59:22.572Z,3.53
2023-04-05T19:01:51.932Z,3.07
2023-04-05T19:04:33.759Z,3.63
2023-04-05T19:07:09.086Z,3.20
2023-04-05T19:09:38.549Z,4.18
2023-04-05T19:12:10.088Z,4.10
2023-04-05T19:14:39.724Z,4.10
2023-04-05T19:17:09.377Z,3.13
2023-04-05T19:19:38.886Z,3.97
2023-04-05T19:22:10.914Z,4.50
2023-04-05T19:24:42.336Z,3.25
2023-04-05T19:27:13.542Z,5.07
2023-04-05T19:29:42.969Z,5.00
2023-04-05T19:32:12.211Z,4.78
2023-04-05T19:34:41.614Z,4.57
2023-04-05T19:37:11.101Z,3.70
2023-04-05T19:39:40.545Z,5.30
2023-04-05T19:42:16.875Z,4.03
2023-04-05T19:44:54.467Z,4.50
2023-04-05T19:47:29.108Z,5.82
2023-04-05T19:50:00.118Z,2.95
2023-04-05T19:52:42.104Z,2.85
2023-04-05T19:55:33.175Z,5.90
2023-04-05T19:58:14.557Z,5.38
2023-04-05T20:00:52.342Z,5.95
2023-04-05T20:03:36.331Z,3.75
2023-04-05T20:06:08.767Z,5.95
2023-04-05T20:08:45.091Z,5.38
2023-04-05T20:11:17.253Z,4.05
2023-04-05T20:13:51.025Z,4.22
2023-04-05T20:16:25.678Z,4.90
2023-04-05T20:18:56.080Z,5.43
2023-04-05T20:21:31.905Z,4.72
2023-04-05T20:26:38.214Z,6.45
2023-04-05T20:29:11.606Z,5.80
2023-04-05T20:31:41.384Z,6.03
2023-04-05T20:34:20.230Z,5.47
2023-04-05T20:36:56.469Z,5.60
2023-04-05T20:39:26.373Z,5.00
2023-04-05T20:41:56.216Z,7.28
2023-04-05T20:44:28.155Z,7.35
2023-04-05T20:46:58.716Z,6.25
2023-04-05T20:49:28.660Z,7.07
2023-04-05T20:52:10.725Z,7.95
2023-04-05T20:54:40.203Z,8.70
2023-04-05T20:57:09.562Z,9.18
2023-04-05T21:02:26.470Z,5.15
2023-04-05T21:05:02.459Z,5.57
2023-04-05T21:07:33.940Z,9.25
2023-04-05T21:12:55.526Z,6.60
2023-04-05T21:15:34.250Z,8.70
2023-04-05T21:18:10.660Z,6.30
2023-04-05T21:20:40.935Z,7.50
2023-04-05T21:23:17.519Z,5.20
2023-04-05T21:25:46.887Z,8.55
2023-04-05T21:28:16.454Z,7.43
2023-04-05T21:33:33.628Z,8.43
2023-04-05T21:36:03.169Z,7.38
2023-04-05T21:38:32.804Z,6.43
2023-04-05T21:41:02.232Z,8.43
2023-04-05T21:43:31.431Z,4.63
2023-04-05T21:46:02.684Z,10.07
2023-04-05T21:48:41.752Z,7.82
2023-04-05T21:51:11.077Z,5.97
2023-04-05T21:53:40.285Z,6.65
2023-04-05T21:56:16.361Z,5.20
2023-04-05T21:58:45.819Z,6.68
2023-04-05T22:01:22.374Z,6.35
2023-04-05T22:03:52.007Z,6.18
2023-04-05T22:06:21.294Z,5.53
2023-04-05T22:08:57.873Z,6.65
2023-04-05T22:11:36.765Z,6.43
2023-04-05T22:14:07.721Z,6.50
2023-04-05T22:16:39.142Z,5.33
2023-04-05T22:19:11.351Z,4.55
2023-04-05T22:21:41.113Z,5.05
2023-04-05T22:24:11.034Z,5.03
2023-04-05T22:26:41.021Z,5.45
2023-04-05T22:29:10.741Z,5.03
2023-04-05T22:31:47.861Z,5.40
2023-04-05T22:34:17.594Z,5.80
2023-04-05T22:36:47.310Z,5.40
2023-04-05T22:39:16.828Z,5.35
2023-04-05T22:41:46.125Z,5.30
2023-04-05T22:44:15.637Z,5.13
2023-04-05T22:46:47.217Z,5.78
2023-04-05T22:49:20.339Z,6.40
2023-04-05T22:51:49.686Z,5.38
2023-04-05T22:54:18.960Z,5.72
2023-04-05T22:56:49.504Z,6.82
2023-04-05T22:59:19.040Z,4.65
2023-04-05T23:01:50.260Z,6.95
2023-04-05T23:04:19.824Z,7.18
2023-04-05T23:06:54.114Z,5.28
2023-04-05T23:09:34.450Z,6.03
2023-04-05T23:12:04.603Z,5.55
2023-04-05T23:14:40.423Z,5.75
2023-04-05T23:17:14.926Z,5.47
2023-04-05T23:19:44.989Z,5.95
2023-04-05T23:22:14.495Z,5.32
2023-04-05T23:24:43.760Z,6.57
2023-04-05T23:27:13.272Z,7.70
2023-04-05T23:29:42.404Z,7.03
2023-04-05T23:32:19.782Z,7.95
2023-04-05T23:34:49.429Z,5.93
2023-04-05T23:37:19.277Z,6.97
2023-04-05T23:39:48.578Z,6.75
2023-04-05T23:42:18.008Z,5.53
2023-04-05T23:44:47.779Z,6.78
2023-04-05T23:47:19.049Z,6.90
2023-04-05T23:49:48.357Z,5.63
2023-04-05T23:52:17.982Z,5.03
2023-04-05T23:54:47.344Z,5.35
2023-04-05T23:57:16.763Z,5.97
2023-04-05T23:59:52.020Z,3.17
